• Join FlightAware (Why Join?)
  • Login
  • US Flag 
07:33PM EDT


 

Airport Tracker/Info


-or-


 

Live Flight TrackerFlight Track Log ✈ DLH1142 ✈ 06-May-2012 ✈ EDDF / FRA - LEBB / BIO

Flight Track Log - Related Links

Times and Time Zones

All times are in EDT time to prevent confusion due to time zone crossing. See the DLH1142 flight status page for this flight to view local times or setup timezone preferences in your user account.

Time Position Orientation Groundspeed Altitude Reporting Facility
EDT Latitude Longitude Course Direction KTS MPH feet Rate Location/Type
05:57AM 49.8098 8.0874 233° Southwest  Level Estimated
05:58AM 49.7482 7.9591 233° Southwest  Level Estimated
05:59AM 49.6864 7.8312 233° Southwest  Level Estimated
06:00AM 49.6245 7.7036 233° Southwest  Level Estimated
06:01AM 49.5624 7.5764 233° Southwest  Level Estimated
06:02AM 49.5003 7.4494 233° Southwest  Level Estimated
06:03AM 49.4379 7.3228 233° Southwest  Level Estimated
06:04AM 49.3755 7.1965 233° Southwest  Level Estimated
06:05AM 49.3128 7.0705 233° Southwest  Level Estimated
06:06AM 49.2501 6.9449 233° Southwest  Level Estimated
06:07AM 49.1872 6.8195 232° Southwest  Level Estimated
06:08AM 49.1242 6.6945 232° Southwest  Level Estimated
06:09AM 49.0611 6.5698 232° Southwest  Level Estimated
06:10AM 48.9978 6.4454 232° Southwest  Level Estimated
06:11AM 48.9344 6.3213 232° Southwest  Level Estimated
06:12AM 48.8708 6.1976 232° Southwest  Level Estimated
06:13AM 48.8071 6.0742 232° Southwest  Level Estimated
06:14AM 48.7433 5.9510 232° Southwest  Level Estimated
06:15AM 48.6794 5.8282 232° Southwest  Level Estimated
06:16AM 48.6153 5.7057 232° Southwest  Level Estimated
06:17AM 48.5511 5.5835 231° Southwest  Level Estimated
06:18AM 48.4868 5.4616 231° Southwest  Level Estimated
06:19AM 48.4223 5.3401 231° Southwest  Level Estimated
06:20AM 48.3577 5.2188 231° Southwest  Level Estimated
06:21AM 48.2930 5.0978 231° Southwest  Level Estimated
06:22AM 48.2282 4.9772 231° Southwest  Level Estimated
06:23AM 48.1632 4.8569 231° Southwest  Level Estimated
06:24AM 48.0981 4.7368 231° Southwest  Level Estimated
06:25AM 48.0329 4.6171 231° Southwest  Level Estimated
06:26AM 47.9676 4.4976 231° Southwest  Level Estimated
06:27AM 47.9021 4.3785 231° Southwest  Level Estimated
06:28AM 47.8365 4.2597 231° Southwest  Level Estimated
06:29AM 47.7708 4.1411 230° Southwest  Level Estimated
06:30AM 47.7050 4.0229 230° Southwest  Level Estimated
06:31AM 47.6390 3.9050 230° Southwest  Level Estimated
06:32AM 47.5730 3.7874 230° Southwest  Level Estimated
06:33AM 47.5068 3.6700 230° Southwest  Level Estimated
06:34AM 47.4405 3.5530 230° Southwest  Level Estimated
06:35AM 47.3740 3.4362 230° Southwest  Level Estimated
06:36AM 47.3075 3.3198 230° Southwest  Level Estimated
06:37AM 47.2408 3.2036 230° Southwest  Level Estimated
06:38AM 47.1740 3.0877 230° Southwest  Level Estimated
06:39AM 47.1071 2.9722 230° Southwest  Level Estimated
06:40AM 47.0401 2.8569 229° Southwest  Level Estimated
06:41AM 46.9730 2.7419 229° Southwest  Level Estimated
06:42AM 46.9057 2.6272 229° Southwest  Level Estimated
06:43AM 46.8384 2.5127 229° Southwest  Level Estimated
06:44AM 46.7709 2.3986 229° Southwest  Level Estimated
06:45AM 46.7033 2.2848 229° Southwest  Level Estimated
06:46AM 46.6356 2.1712 229° Southwest  Level Estimated
06:47AM 46.5678 2.0579 229° Southwest  Level Estimated
06:48AM 46.4999 1.9449 229° Southwest  Level Estimated
06:49AM 46.4318 1.8322 229° Southwest  Level Estimated
06:50AM 46.3637 1.7198 229° Southwest  Level Estimated
06:51AM 46.2954 1.6077 229° Southwest  Level Estimated
06:52AM 46.2271 1.4958 228° Southwest  Level Estimated
06:53AM 46.1586 1.3842 228° Southwest  Level Estimated
06:54AM 46.0900 1.2729 228° Southwest  Level Estimated
06:55AM 46.0213 1.1618 228° Southwest  Level Estimated
06:56AM 45.9525 1.0511 228° Southwest  Level Estimated
06:57AM 45.8836 0.9406 228° Southwest  Level Estimated
06:58AM 45.8146 0.8304 228° Southwest  Level Estimated
06:59AM 45.7455 0.7204 228° Southwest  Level Estimated
07:00AM 45.6763 0.6108 228° Southwest  Level Estimated
07:01AM 45.6069 0.5014 228° Southwest  Level Estimated
07:02AM 45.5375 0.3922 228° Southwest  Level Estimated
07:03AM 45.4680 0.2834 228° Southwest  Level Estimated
07:04AM 45.3983 0.1748 228° Southwest  Level Estimated
07:05AM 45.3286 0.0665 227° Southwest  Level Estimated
07:06AM 45.2588 -0.0416 227° Southwest  Level Estimated
07:07AM 45.1888 -0.1494 227° Southwest  Level Estimated
07:08AM 45.1188 -0.2569 227° Southwest  Level Estimated
07:09AM 45.0486 -0.3642 227° Southwest  Level Estimated
07:10AM 44.9784 -0.4712 227° Southwest  Level Estimated
07:11AM 44.9080 -0.5779 227° Southwest  Level Estimated
07:12AM 44.8376 -0.6844 227° Southwest  Level Estimated
07:13AM 44.7671 -0.7906 227° Southwest  Level Estimated
07:14AM 44.6964 -0.8966 227° Southwest  Level Estimated
07:15AM 44.6257 -1.0023 227° Southwest  Level Estimated
07:16AM 44.5548 -1.1077 227° Southwest  Level Estimated
07:17AM 44.4839 -1.2129 227° Southwest  Level Estimated
07:18AM 44.4129 -1.3178 226° Southwest  Level Estimated
07:19AM 44.3380 -1.4280 226° Southwest  Level Estimated
07:20AM 44.2630 -1.5379 226° Southwest  Level Estimated
07:21AM 44.1880 -1.6475 226° Southwest  Level Estimated
07:22AM 44.1128 -1.7568 226° Southwest  Level Estimated
07:23AM 44.0375 -1.8659 226° Southwest  Level Estimated
07:24AM 43.9621 -1.9747 226° Southwest  Level Estimated
07:25AM 43.8866 -2.0832 226° Southwest  Level Estimated
07:26AM 43.8110 -2.1914 226° Southwest  Level Estimated
07:27AM 43.7353 -2.2994 226° Southwest  Level Estimated
07:28AM 43.6595 -2.4070 226° Southwest  Level Estimated
07:29AM 43.5836 -2.5145 226° Southwest  Level Estimated
07:30AM 43.5076 -2.6216 226° Southwest  Level Estimated
07:31AM 43.4315 -2.7285 226° Southwest  Level Estimated
07:32AM 43.3553 -2.8351 225° Southwest  Level Estimated
07:33AM 43.2790 -2.9414 45° Northeast  Level Estimated
07:34AM 43.3553 -2.8351 225° Southwest  Level Estimated
07:35AM 43.2790 -2.9414 45° Northeast  Level Estimated
07:36AM 43.3553 -2.8351 225° Southwest  Level Estimated
07:37AM 43.2790 -2.9414 45° Northeast  Level Estimated
07:38AM 43.3553 -2.8351 225° Southwest  Level Estimated
07:39AM 43.2790 -2.9414 45° Northeast  Level Estimated
07:40AM 43.3553 -2.8351 225° Southwest  Level Estimated
07:41AM 43.2790 -2.9414 45° Northeast  Level Estimated
07:42AM 43.3553 -2.8351 225° Southwest  Level Estimated
07:43AM 43.2790 -2.9414 45° Northeast  Level Estimated
07:44AM 43.3553 -2.8351 45° Northeast  Level Estimated